sensor_id;sensor_type;location;lat;lon;timestamp;pressure;altitude;pressure_sealevel;temperature;humidity
33422;BME280;19763;55.798;37.782;2022-08-19T00:00:46;100224.63;;;22.38;55.52
33422;BME280;19763;55.798;37.782;2022-08-19T00:03:11;100215.72;;;22.24;55.47
33422;BME280;19763;55.798;37.782;2022-08-19T00:05:37;100215.47;;;22.15;55.90
33422;BME280;19763;55.798;37.782;2022-08-19T00:08:03;100221.19;;;22.21;55.90
33422;BME280;19763;55.798;37.782;2022-08-19T00:10:29;100216.69;;;22.23;55.58
33422;BME280;19763;55.798;37.782;2022-08-19T00:12:54;100214.59;;;22.29;55.66
33422;BME280;19763;55.798;37.782;2022-08-19T00:15:21;100223.84;;;22.36;55.18
33422;BME280;19763;55.798;37.782;2022-08-19T00:17:47;100227.88;;;22.13;55.62
33422;BME280;19763;55.798;37.782;2022-08-19T00:20:15;100198.94;;;21.82;55.63
33422;BME280;19763;55.798;37.782;2022-08-19T00:22:45;100238.44;;;22.13;55.12
33422;BME280;19763;55.798;37.782;2022-08-19T00:25:13;100233.25;;;21.97;55.73
33422;BME280;19763;55.798;37.782;2022-08-19T00:27:39;100230.91;;;21.92;55.58
33422;BME280;19763;55.798;37.782;2022-08-19T00:30:06;100231.25;;;21.86;55.85
33422;BME280;19763;55.798;37.782;2022-08-19T00:32:32;100242.97;;;21.96;55.66
33422;BME280;19763;55.798;37.782;2022-08-19T00:34:59;100241.13;;;21.82;56.19
33422;BME280;19763;55.798;37.782;2022-08-19T00:37:25;100241.22;;;21.81;55.93
33422;BME280;19763;55.798;37.782;2022-08-19T00:39:53;100181.88;;;21.43;55.83
33422;BME280;19763;55.798;37.782;2022-08-19T00:42:20;100226.13;;;21.68;56.15
33422;BME280;19763;55.798;37.782;2022-08-19T00:44:46;100233.03;;;21.71;56.30
33422;BME280;19763;55.798;37.782;2022-08-19T00:47:13;100225.84;;;21.73;55.79
33422;BME280;19763;55.798;37.782;2022-08-19T00:49:48;100237.28;;;21.58;55.84
33422;BME280;19763;55.798;37.782;2022-08-19T00:52:25;100191.84;;;21.38;56.12
33422;BME280;19763;55.798;37.782;2022-08-19T00:54:55;100236.97;;;21.78;55.69
33422;BME280;19763;55.798;37.782;2022-08-19T00:57:26;100195.72;;;21.63;55.56
33422;BME280;19763;55.798;37.782;2022-08-19T00:59:54;100200.66;;;21.53;55.73
33422;BME280;19763;55.798;37.782;2022-08-19T01:02:21;100260.38;;;21.54;56.07
33422;BME280;19763;55.798;37.782;2022-08-19T01:04:46;100266.66;;;21.51;56.29
33422;BME280;19763;55.798;37.782;2022-08-19T01:07:12;100265.66;;;21.38;56.53
33422;BME280;19763;55.798;37.782;2022-08-19T01:09:38;100276.69;;;21.61;56.16
33422;BME280;19763;55.798;37.782;2022-08-19T01:12:04;100271.75;;;21.38;56.89
33422;BME280;19763;55.798;37.782;2022-08-19T01:14:30;100280.81;;;21.49;56.35
33422;BME280;19763;55.798;37.782;2022-08-19T01:16:56;100279.47;;;21.58;56.18
33422;BME280;19763;55.798;37.782;2022-08-19T01:19:36;100250.16;;;21.32;56.35
33422;BME280;19763;55.798;37.782;2022-08-19T01:24:28;100272.88;;;21.34;56.65
33422;BME280;19763;55.798;37.782;2022-08-19T01:26:54;100275.03;;;21.28;56.96
33422;BME280;19763;55.798;37.782;2022-08-19T01:29:20;100272.28;;;21.29;56.84
33422;BME280;19763;55.798;37.782;2022-08-19T01:31:45;100276.00;;;21.41;56.82
33422;BME280;19763;55.798;37.782;2022-08-19T01:34:11;100271.56;;;21.42;56.26
33422;BME280;19763;55.798;37.782;2022-08-19T01:36:42;100289.22;;;21.09;57.52
33422;BME280;19763;55.798;37.782;2022-08-19T01:39:21;100258.19;;;21.14;56.71
33422;BME280;19763;55.798;37.782;2022-08-19T01:41:47;100276.72;;;21.13;57.03
33422;BME280;19763;55.798;37.782;2022-08-19T01:44:14;100276.34;;;21.19;57.02
33422;BME280;19763;55.798;37.782;2022-08-19T01:46:40;100277.56;;;21.29;56.64
33422;BME280;19763;55.798;37.782;2022-08-19T01:49:07;100273.50;;;21.24;56.87
33422;BME280;19763;55.798;37.782;2022-08-19T01:51:33;100268.88;;;21.27;57.03
33422;BME280;19763;55.798;37.782;2022-08-19T01:53:59;100259.78;;;21.33;56.76
33422;BME280;19763;55.798;37.782;2022-08-19T01:56:25;100262.34;;;21.18;56.69
33422;BME280;19763;55.798;37.782;2022-08-19T01:58:54;100249.78;;;20.92;57.46
33422;BME280;19763;55.798;37.782;2022-08-19T02:01:21;100259.63;;;21.20;56.90
33422;BME280;19763;55.798;37.782;2022-08-19T02:03:47;100255.03;;;21.24;56.88
33422;BME280;19763;55.798;37.782;2022-08-19T02:06:13;100263.19;;;21.35;56.73
33422;BME280;19763;55.798;37.782;2022-08-19T02:08:39;100260.22;;;21.25;56.46
33422;BME280;19763;55.798;37.782;2022-08-19T02:11:06;100272.38;;;21.12;57.37
33422;BME280;19763;55.798;37.782;2022-08-19T02:13:33;100262.09;;;21.07;57.20
33422;BME280;19763;55.798;37.782;2022-08-19T02:16:19;100269.31;;;20.88;57.72
33422;BME280;19763;55.798;37.782;2022-08-19T02:18:46;100271.84;;;20.73;57.97
33422;BME280;19763;55.798;37.782;2022-08-19T02:21:15;100252.38;;;20.60;57.93
33422;BME280;19763;55.798;37.782;2022-08-19T02:23:42;100282.31;;;20.91;57.80
33422;BME280;19763;55.798;37.782;2022-08-19T02:26:08;100281.28;;;20.77;57.99
33422;BME280;19763;55.798;37.782;2022-08-19T02:28:34;100279.75;;;20.89;57.61
33422;BME280;19763;55.798;37.782;2022-08-19T02:31:00;100274.00;;;20.82;57.47
33422;BME280;19763;55.798;37.782;2022-08-19T02:33:27;100288.09;;;20.81;58.03
33422;BME280;19763;55.798;37.782;2022-08-19T02:35:53;100289.72;;;20.84;57.76
33422;BME280;19763;55.798;37.782;2022-08-19T02:38:19;100294.91;;;20.85;57.90
33422;BME280;19763;55.798;37.782;2022-08-19T02:40:53;100294.06;;;21.01;57.66
33422;BME280;19763;55.798;37.782;2022-08-19T02:43:19;100282.25;;;21.08;57.38
33422;BME280;19763;55.798;37.782;2022-08-19T02:45:45;100291.50;;;21.15;56.86
33422;BME280;19763;55.798;37.782;2022-08-19T02:48:16;100296.16;;;20.78;57.97
33422;BME280;19763;55.798;37.782;2022-08-19T02:50:43;100298.19;;;20.73;58.25
33422;BME280;19763;55.798;37.782;2022-08-19T02:53:09;100296.16;;;20.94;57.71
33422;BME280;19763;55.798;37.782;2022-08-19T02:55:35;100304.06;;;20.78;58.08
33422;BME280;19763;55.798;37.782;2022-08-19T02:58:01;100301.00;;;20.70;58.34
33422;BME280;19763;55.798;37.782;2022-08-19T03:00:27;100301.00;;;20.70;58.44
33422;BME280;19763;55.798;37.782;2022-08-19T03:02:53;100302.88;;;20.84;58.06
33422;BME280;19763;55.798;37.782;2022-08-19T03:05:19;100289.97;;;20.79;58.04
33422;BME280;19763;55.798;37.782;2022-08-19T03:07:45;100305.25;;;20.73;58.50
33422;BME280;19763;55.798;37.782;2022-08-19T03:10:11;100295.38;;;20.76;58.37
33422;BME280;19763;55.798;37.782;2022-08-19T03:12:38;100293.09;;;20.70;58.63
33422;BME280;19763;55.798;37.782;2022-08-19T03:15:05;100299.31;;;20.85;58.28
33422;BME280;19763;55.798;37.782;2022-08-19T03:17:31;100304.59;;;20.85;58.10
33422;BME280;19763;55.798;37.782;2022-08-19T03:19:57;100296.19;;;20.61;58.62
33422;BME280;19763;55.798;37.782;2022-08-19T03:22:22;100294.88;;;20.69;58.66
33422;BME280;19763;55.798;37.782;2022-08-19T03:24:48;100300.06;;;20.71;58.68
33422;BME280;19763;55.798;37.782;2022-08-19T03:27:13;100300.50;;;20.79;58.27
33422;BME280;19763;55.798;37.782;2022-08-19T03:29:39;100304.84;;;20.63;58.80
33422;BME280;19763;55.798;37.782;2022-08-19T03:32:06;100312.03;;;20.59;59.02
33422;BME280;19763;55.798;37.782;2022-08-19T03:34:34;100287.22;;;20.47;59.48
33422;BME280;19763;55.798;37.782;2022-08-19T03:37:05;100303.72;;;20.51;59.54
33422;BME280;19763;55.798;37.782;2022-08-19T03:39:31;100296.66;;;20.51;59.27
33422;BME280;19763;55.798;37.782;2022-08-19T03:41:57;100303.66;;;20.52;59.66
33422;BME280;19763;55.798;37.782;2022-08-19T03:44:25;100297.84;;;20.46;59.28
33422;BME280;19763;55.798;37.782;2022-08-19T03:46:53;100268.28;;;20.41;59.46
33422;BME280;19763;55.798;37.782;2022-08-19T03:49:21;100303.94;;;20.46;59.73
33422;BME280;19763;55.798;37.782;2022-08-19T03:51:48;100267.00;;;20.32;58.86
33422;BME280;19763;55.798;37.782;2022-08-19T03:54:17;100257.19;;;20.51;58.91
33422;BME280;19763;55.798;37.782;2022-08-19T03:56:45;100299.97;;;20.73;59.24
33422;BME280;19763;55.798;37.782;2022-08-19T03:59:17;100313.22;;;20.71;59.20
33422;BME280;19763;55.798;37.782;2022-08-19T04:01:43;100324.03;;;20.65;59.35
33422;BME280;19763;55.798;37.782;2022-08-19T04:04:09;100304.94;;;20.61;59.50
33422;BME280;19763;55.798;37.782;2022-08-19T04:06:37;100255.28;;;20.38;59.65
33422;BME280;19763;55.798;37.782;2022-08-19T04:09:06;100294.31;;;20.63;59.62
33422;BME280;19763;55.798;37.782;2022-08-19T04:11:38;100312.53;;;20.83;59.22
33422;BME280;19763;55.798;37.782;2022-08-19T04:14:08;100312.22;;;20.90;59.27
33422;BME280;19763;55.798;37.782;2022-08-19T04:16:34;100307.19;;;20.69;59.26
33422;BME280;19763;55.798;37.782;2022-08-19T04:19:01;100310.13;;;20.63;59.66
33422;BME280;19763;55.798;37.782;2022-08-19T04:21:28;100316.78;;;20.86;59.16
33422;BME280;19763;55.798;37.782;2022-08-19T04:23:55;100320.84;;;21.09;58.82
33422;BME280;19763;55.798;37.782;2022-08-19T04:26:24;100267.88;;;20.82;58.50
33422;BME280;19763;55.798;37.782;2022-08-19T04:28:50;100317.41;;;21.07;58.96
33422;BME280;19763;55.798;37.782;2022-08-19T04:31:23;100276.03;;;20.77;58.39
33422;BME280;19763;55.798;37.782;2022-08-19T04:33:55;100320.63;;;20.80;59.45
33422;BME280;19763;55.798;37.782;2022-08-19T04:36:24;100315.44;;;20.79;58.90
33422;BME280;19763;55.798;37.782;2022-08-19T04:38:55;100314.78;;;20.91;58.86
33422;BME280;19763;55.798;37.782;2022-08-19T04:41:22;100318.09;;;21.11;58.63
33422;BME280;19763;55.798;37.782;2022-08-19T04:44:07;100327.19;;;21.21;58.09
33422;BME280;19763;55.798;37.782;2022-08-19T04:46:51;100329.38;;;21.29;58.45
33422;BME280;19763;55.798;37.782;2022-08-19T04:49:20;100278.25;;;21.01;58.19
33422;BME280;19763;55.798;37.782;2022-08-19T04:51:51;100321.59;;;21.59;57.98
33422;BME280;19763;55.798;37.782;2022-08-19T04:54:20;100323.19;;;21.62;57.79
33422;BME280;19763;55.798;37.782;2022-08-19T04:56:51;100324.88;;;21.47;58.25
33422;BME280;19763;55.798;37.782;2022-08-19T04:59:18;100327.97;;;21.55;58.05
33422;BME280;19763;55.798;37.782;2022-08-19T05:01:46;100328.72;;;21.57;58.58
33422;BME280;19763;55.798;37.782;2022-08-19T05:04:15;100324.38;;;21.72;57.94
33422;BME280;19763;55.798;37.782;2022-08-19T05:06:42;100319.78;;;21.60;58.15
33422;BME280;19763;55.798;37.782;2022-08-19T05:09:08;100323.31;;;21.91;57.64
33422;BME280;19763;55.798;37.782;2022-08-19T05:11:36;100292.66;;;21.88;57.01
33422;BME280;19763;55.798;37.782;2022-08-19T05:14:03;100326.22;;;22.00;57.22
33422;BME280;19763;55.798;37.782;2022-08-19T05:16:29;100321.50;;;21.91;57.63
33422;BME280;19763;55.798;37.782;2022-08-19T05:18:55;100324.75;;;22.11;57.52
33422;BME280;19763;55.798;37.782;2022-08-19T05:21:41;100319.72;;;22.06;57.01
33422;BME280;19763;55.798;37.782;2022-08-19T05:24:26;100310.44;;;22.15;57.70
33422;BME280;19763;55.798;37.782;2022-08-19T05:26:54;100316.28;;;22.20;57.14
33422;BME280;19763;55.798;37.782;2022-08-19T05:29:23;100332.50;;;22.28;57.09
33422;BME280;19763;55.798;37.782;2022-08-19T05:31:50;100318.63;;;22.40;57.54
33422;BME280;19763;55.798;37.782;2022-08-19T05:34:17;100312.28;;;22.43;56.78
33422;BME280;19763;55.798;37.782;2022-08-19T05:36:47;100321.34;;;22.39;56.67
33422;BME280;19763;55.798;37.782;2022-08-19T05:39:16;100306.41;;;22.23;57.25
33422;BME280;19763;55.798;37.782;2022-08-19T05:41:45;100329.88;;;22.28;56.63
33422;BME280;19763;55.798;37.782;2022-08-19T05:44:12;100324.69;;;22.27;56.92
33422;BME280;19763;55.798;37.782;2022-08-19T05:46:37;100325.94;;;22.35;56.58
33422;BME280;19763;55.798;37.782;2022-08-19T05:49:05;100326.06;;;22.48;56.86
33422;BME280;19763;55.798;37.782;2022-08-19T05:51:33;100321.25;;;22.69;56.47
33422;BME280;19763;55.798;37.782;2022-08-19T05:54:00;100319.94;;;22.77;55.69
33422;BME280;19763;55.798;37.782;2022-08-19T05:56:26;100326.16;;;22.75;56.48
33422;BME280;19763;55.798;37.782;2022-08-19T05:58:51;100329.63;;;22.62;56.42
33422;BME280;19763;55.798;37.782;2022-08-19T06:01:18;100327.09;;;22.60;56.58
33422;BME280;19763;55.798;37.782;2022-08-19T06:03:44;100320.31;;;22.85;55.90
33422;BME280;19763;55.798;37.782;2022-08-19T06:06:12;100280.88;;;22.82;55.63
33422;BME280;19763;55.798;37.782;2022-08-19T06:08:39;100317.53;;;23.15;55.42
33422;BME280;19763;55.798;37.782;2022-08-19T06:13:42;100322.19;;;23.39;55.20
33422;BME280;19763;55.798;37.782;2022-08-19T06:16:08;100328.88;;;23.44;55.05
33422;BME280;19763;55.798;37.782;2022-08-19T06:18:34;100332.78;;;23.39;54.50
33422;BME280;19763;55.798;37.782;2022-08-19T06:20:59;100331.38;;;23.60;54.36
33422;BME280;19763;55.798;37.782;2022-08-19T06:23:29;100331.47;;;23.59;54.34
33422;BME280;19763;55.798;37.782;2022-08-19T06:25:56;100326.75;;;23.77;53.80
33422;BME280;19763;55.798;37.782;2022-08-19T06:28:22;100334.75;;;23.90;53.84
33422;BME280;19763;55.798;37.782;2022-08-19T06:30:49;100341.75;;;23.91;52.92
33422;BME280;19763;55.798;37.782;2022-08-19T06:33:16;100340.16;;;24.01;51.76
33422;BME280;19763;55.798;37.782;2022-08-19T06:35:42;100339.34;;;24.13;52.48
33422;BME280;19763;55.798;37.782;2022-08-19T06:38:07;100335.09;;;24.11;52.34
33422;BME280;19763;55.798;37.782;2022-08-19T06:40:35;100324.84;;;24.45;52.05
33422;BME280;19763;55.798;37.782;2022-08-19T06:43:02;100333.13;;;24.66;51.65
33422;BME280;19763;55.798;37.782;2022-08-19T06:45:27;100332.34;;;24.51;50.68
33422;BME280;19763;55.798;37.782;2022-08-19T06:47:53;100316.69;;;24.48;50.14
33422;BME280;19763;55.798;37.782;2022-08-19T06:50:22;100329.22;;;24.72;50.92
33422;BME280;19763;55.798;37.782;2022-08-19T06:52:48;100327.50;;;24.71;50.49
33422;BME280;19763;55.798;37.782;2022-08-19T06:55:14;100299.22;;;24.33;50.14
33422;BME280;19763;55.798;37.782;2022-08-19T06:57:41;100335.97;;;24.37;50.24
33422;BME280;19763;55.798;37.782;2022-08-19T07:00:08;100320.28;;;24.34;50.38
33422;BME280;19763;55.798;37.782;2022-08-19T07:02:39;100332.78;;;24.58;50.19
33422;BME280;19763;55.798;37.782;2022-08-19T07:05:05;100335.56;;;24.69;49.71
33422;BME280;19763;55.798;37.782;2022-08-19T07:07:31;100343.50;;;24.56;49.54
33422;BME280;19763;55.798;37.782;2022-08-19T07:09:57;100338.00;;;24.72;49.15
33422;BME280;19763;55.798;37.782;2022-08-19T07:12:22;100335.22;;;24.74;48.84
33422;BME280;19763;55.798;37.782;2022-08-19T07:14:48;100336.09;;;24.74;48.93
33422;BME280;19763;55.798;37.782;2022-08-19T07:17:14;100335.31;;;24.85;49.12
33422;BME280;19763;55.798;37.782;2022-08-19T07:19:40;100332.31;;;25.15;48.76
33422;BME280;19763;55.798;37.782;2022-08-19T07:22:08;100328.44;;;25.20;47.96
33422;BME280;19763;55.798;37.782;2022-08-19T07:24:34;100340.75;;;25.33;48.03
33422;BME280;19763;55.798;37.782;2022-08-19T07:27:02;100294.47;;;25.01;47.25
33422;BME280;19763;55.798;37.782;2022-08-19T07:29:30;100283.03;;;25.00;47.16
33422;BME280;19763;55.798;37.782;2022-08-19T07:31:59;100338.63;;;25.26;47.10
33422;BME280;19763;55.798;37.782;2022-08-19T07:34:26;100336.84;;;25.13;46.83
33422;BME280;19763;55.798;37.782;2022-08-19T07:36:53;100288.16;;;24.90;47.25
33422;BME280;19763;55.798;37.782;2022-08-19T07:39:23;100301.13;;;25.06;47.10
33422;BME280;19763;55.798;37.782;2022-08-19T07:41:49;100345.81;;;25.37;47.19
33422;BME280;19763;55.798;37.782;2022-08-19T07:44:18;100301.19;;;24.93;47.46
33422;BME280;19763;55.798;37.782;2022-08-19T07:46:49;100317.53;;;24.87;47.29
33422;BME280;19763;55.798;37.782;2022-08-19T07:49:16;100351.00;;;24.88;48.18
33422;BME280;19763;55.798;37.782;2022-08-19T07:51:47;100362.28;;;25.16;48.30
33422;BME280;19763;55.798;37.782;2022-08-19T07:54:13;100349.91;;;25.04;48.17
33422;BME280;19763;55.798;37.782;2022-08-19T07:56:39;100359.47;;;25.06;48.51
33422;BME280;19763;55.798;37.782;2022-08-19T07:59:05;100358.88;;;24.90;48.96
33422;BME280;19763;55.798;37.782;2022-08-19T08:01:31;100361.19;;;24.94;49.67
33422;BME280;19763;55.798;37.782;2022-08-19T08:03:57;100359.47;;;24.93;49.10
33422;BME280;19763;55.798;37.782;2022-08-19T08:06:41;100355.25;;;24.91;49.45
33422;BME280;19763;55.798;37.782;2022-08-19T08:09:32;100316.78;;;24.59;49.08
33422;BME280;19763;55.798;37.782;2022-08-19T08:12:05;100336.59;;;24.79;49.58
33422;BME280;19763;55.798;37.782;2022-08-19T08:14:35;100318.19;;;24.65;49.32
33422;BME280;19763;55.798;37.782;2022-08-19T08:17:03;100300.38;;;24.80;49.41
33422;BME280;19763;55.798;37.782;2022-08-19T08:19:29;100357.53;;;25.21;49.21
33422;BME280;19763;55.798;37.782;2022-08-19T08:21:58;100362.38;;;25.40;49.69
33422;BME280;19763;55.798;37.782;2022-08-19T08:24:26;100320.88;;;25.02;49.07
33422;BME280;19763;55.798;37.782;2022-08-19T08:26:52;100362.97;;;25.44;48.24
33422;BME280;19763;55.798;37.782;2022-08-19T08:29:18;100364.44;;;25.48;48.12
33422;BME280;19763;55.798;37.782;2022-08-19T08:31:44;100375.00;;;25.61;47.08
33422;BME280;19763;55.798;37.782;2022-08-19T08:34:13;100366.50;;;25.69;46.85
33422;BME280;19763;55.798;37.782;2022-08-19T08:36:41;100378.94;;;25.79;46.81
33422;BME280;19763;55.798;37.782;2022-08-19T08:39:18;100378.81;;;25.70;46.53
33422;BME280;19763;55.798;37.782;2022-08-19T08:45:03;100375.84;;;25.37;46.47
33422;BME280;19763;55.798;37.782;2022-08-19T08:47:35;100372.22;;;25.25;46.62
33422;BME280;19763;55.798;37.782;2022-08-19T08:50:15;100373.31;;;25.60;46.53
33422;BME280;19763;55.798;37.782;2022-08-19T08:52:47;100327.34;;;25.35;46.25
33422;BME280;19763;55.798;37.782;2022-08-19T08:55:17;100338.88;;;25.10;47.11
33422;BME280;19763;55.798;37.782;2022-08-19T09:00:23;100330.53;;;25.03;46.86
33422;BME280;19763;55.798;37.782;2022-08-19T09:02:50;100362.19;;;25.18;46.65
33422;BME280;19763;55.798;37.782;2022-08-19T09:05:17;100367.28;;;25.08;47.03
33422;BME280;19763;55.798;37.782;2022-08-19T09:07:50;100364.28;;;25.25;45.86
33422;BME280;19763;55.798;37.782;2022-08-19T09:15:46;100384.53;;;25.26;46.22
33422;BME280;19763;55.798;37.782;2022-08-19T09:18:14;100381.75;;;25.41;45.78
33422;BME280;19763;55.798;37.782;2022-08-19T09:20:40;100374.66;;;25.41;45.14
33422;BME280;19763;55.798;37.782;2022-08-19T09:23:06;100379.19;;;25.52;44.04
33422;BME280;19763;55.798;37.782;2022-08-19T09:25:31;100380.09;;;25.40;43.76
33422;BME280;19763;55.798;37.782;2022-08-19T09:28:00;100376.50;;;25.15;44.63
33422;BME280;19763;55.798;37.782;2022-08-19T09:30:32;100338.78;;;25.11;44.39
33422;BME280;19763;55.798;37.782;2022-08-19T09:32:59;100378.50;;;25.61;44.29
33422;BME280;19763;55.798;37.782;2022-08-19T09:35:28;100387.19;;;25.88;43.57
33422;BME280;19763;55.798;37.782;2022-08-19T09:37:58;100377.22;;;25.43;42.73
33422;BME280;19763;55.798;37.782;2022-08-19T09:40:24;100397.75;;;25.52;42.71
33422;BME280;19763;55.798;37.782;2022-08-19T09:42:50;100383.69;;;25.39;43.47
33422;BME280;19763;55.798;37.782;2022-08-19T09:45:18;100340.53;;;25.24;43.47
33422;BME280;19763;55.798;37.782;2022-08-19T09:47:46;100386.00;;;25.67;43.61
33422;BME280;19763;55.798;37.782;2022-08-19T09:50:12;100375.97;;;25.84;43.68
33422;BME280;19763;55.798;37.782;2022-08-19T09:52:39;100391.19;;;25.93;43.49
33422;BME280;19763;55.798;37.782;2022-08-19T09:55:06;100386.13;;;25.90;43.60
33422;BME280;19763;55.798;37.782;2022-08-19T09:57:33;100378.88;;;25.92;43.57
33422;BME280;19763;55.798;37.782;2022-08-19T09:59:59;100391.16;;;25.82;42.86
33422;BME280;19763;55.798;37.782;2022-08-19T10:02:24;100397.81;;;25.63;43.65
33422;BME280;19763;55.798;37.782;2022-08-19T10:04:51;100399.22;;;25.56;43.75
33422;BME280;19763;55.798;37.782;2022-08-19T10:07:36;100398.09;;;25.72;43.88
33422;BME280;19763;55.798;37.782;2022-08-19T10:10:05;100409.28;;;25.88;42.22
33422;BME280;19763;55.798;37.782;2022-08-19T10:12:32;100392.97;;;25.57;42.17
33422;BME280;19763;55.798;37.782;2022-08-19T10:14:59;100388.84;;;25.77;42.39
33422;BME280;19763;55.798;37.782;2022-08-19T10:17:25;100385.94;;;25.80;40.32
33422;BME280;19763;55.798;37.782;2022-08-19T10:19:51;100382.13;;;25.84;39.82
33422;BME280;19763;55.798;37.782;2022-08-19T10:22:17;100344.13;;;25.84;37.83
33422;BME280;19763;55.798;37.782;2022-08-19T10:24:43;100393.97;;;26.16;37.88
33422;BME280;19763;55.798;37.782;2022-08-19T10:27:09;100393.13;;;25.91;35.96
33422;BME280;19763;55.798;37.782;2022-08-19T10:29:35;100403.59;;;26.06;34.81
33422;BME280;19763;55.798;37.782;2022-08-19T10:32:02;100406.66;;;25.99;34.82
33422;BME280;19763;55.798;37.782;2022-08-19T10:34:29;100410.38;;;26.10;34.92
33422;BME280;19763;55.798;37.782;2022-08-19T10:36:56;100367.50;;;25.79;31.86
33422;BME280;19763;55.798;37.782;2022-08-19T10:39:22;100416.25;;;25.89;31.46
33422;BME280;19763;55.798;37.782;2022-08-19T10:41:48;100423.88;;;26.07;32.34
33422;BME280;19763;55.798;37.782;2022-08-19T10:44:14;100416.03;;;25.92;31.91
33422;BME280;19763;55.798;37.782;2022-08-19T10:46:42;100369.44;;;25.53;30.33
33422;BME280;19763;55.798;37.782;2022-08-19T10:49:12;100426.56;;;25.70;30.35
33422;BME280;19763;55.798;37.782;2022-08-19T10:51:39;100424.88;;;25.69;29.88
33422;BME280;19763;55.798;37.782;2022-08-19T10:54:25;100422.38;;;25.78;30.60
33422;BME280;19763;55.798;37.782;2022-08-19T10:57:10;100428.19;;;25.83;30.53
33422;BME280;19763;55.798;37.782;2022-08-19T10:59:36;100433.50;;;25.83;30.38
33422;BME280;19763;55.798;37.782;2022-08-19T11:02:05;100388.88;;;25.40;30.49
33422;BME280;19763;55.798;37.782;2022-08-19T11:04:31;100425.03;;;25.54;30.29
33422;BME280;19763;55.798;37.782;2022-08-19T11:07:16;100425.75;;;25.56;30.64
33422;BME280;19763;55.798;37.782;2022-08-19T11:09:42;100418.97;;;25.76;30.86
33422;BME280;19763;55.798;37.782;2022-08-19T11:12:09;100427.06;;;25.75;30.89
33422;BME280;19763;55.798;37.782;2022-08-19T11:14:35;100411.38;;;25.72;30.31
33422;BME280;19763;55.798;37.782;2022-08-19T11:17:03;100402.78;;;25.68;30.36
33422;BME280;19763;55.798;37.782;2022-08-19T11:19:29;100411.31;;;25.60;31.42
33422;BME280;19763;55.798;37.782;2022-08-19T11:21:55;100404.25;;;25.72;32.11
33422;BME280;19763;55.798;37.782;2022-08-19T11:24:24;100399.84;;;25.84;32.34
33422;BME280;19763;55.798;37.782;2022-08-19T11:26:53;100404.94;;;26.11;32.59
33422;BME280;19763;55.798;37.782;2022-08-19T11:29:22;100404.00;;;26.24;31.89
33422;BME280;19763;55.798;37.782;2022-08-19T11:31:51;100393.06;;;26.40;32.24
33422;BME280;19763;55.798;37.782;2022-08-19T11:34:20;100397.88;;;26.34;31.45
33422;BME280;19763;55.798;37.782;2022-08-19T11:36:47;100411.31;;;26.09;32.23
33422;BME280;19763;55.798;37.782;2022-08-19T11:39:15;100379.63;;;25.94;32.47
33422;BME280;19763;55.798;37.782;2022-08-19T11:41:41;100391.91;;;25.84;32.63
33422;BME280;19763;55.798;37.782;2022-08-19T11:44:07;100383.75;;;25.98;32.99
33422;BME280;19763;55.798;37.782;2022-08-19T11:46:35;100362.88;;;25.70;32.93
33422;BME280;19763;55.798;37.782;2022-08-19T11:49:04;100405.38;;;25.81;32.89
33422;BME280;19763;55.798;37.782;2022-08-19T11:51:30;100386.59;;;25.84;33.62
33422;BME280;19763;55.798;37.782;2022-08-19T11:53:58;100418.97;;;25.76;34.73
33422;BME280;19763;55.798;37.782;2022-08-19T11:56:26;100402.50;;;25.84;35.25
33422;BME280;19763;55.798;37.782;2022-08-19T11:58:53;100410.63;;;25.94;36.02
33422;BME280;19763;55.798;37.782;2022-08-19T12:01:21;100383.47;;;25.66;36.80
33422;BME280;19763;55.798;37.782;2022-08-19T12:03:48;100361.66;;;25.49;37.49
33422;BME280;19763;55.798;37.782;2022-08-19T12:06:22;100412.19;;;25.96;37.31
33422;BME280;19763;55.798;37.782;2022-08-19T12:08:51;100410.47;;;25.60;37.66
33422;BME280;19763;55.798;37.782;2022-08-19T12:11:17;100398.09;;;25.72;37.17
33422;BME280;19763;55.798;37.782;2022-08-19T12:13:43;100393.69;;;25.83;38.01
33422;BME280;19763;55.798;37.782;2022-08-19T12:16:16;100397.19;;;25.84;37.91
33422;BME280;19763;55.798;37.782;2022-08-19T12:18:43;100384.09;;;25.94;38.13
33422;BME280;19763;55.798;37.782;2022-08-19T12:21:10;100382.59;;;25.78;38.40
33422;BME280;19763;55.798;37.782;2022-08-19T12:23:39;100386.91;;;26.04;38.51
33422;BME280;19763;55.798;37.782;2022-08-19T12:26:04;100384.06;;;26.07;38.34
33422;BME280;19763;55.798;37.782;2022-08-19T12:28:30;100374.78;;;25.99;38.71
33422;BME280;19763;55.798;37.782;2022-08-19T12:30:56;100367.75;;;26.11;38.74
33422;BME280;19763;55.798;37.782;2022-08-19T12:33:23;100380.00;;;26.25;38.83
33422;BME280;19763;55.798;37.782;2022-08-19T12:35:51;100386.94;;;26.15;38.87
33422;BME280;19763;55.798;37.782;2022-08-19T12:38:18;100379.19;;;26.00;38.64
33422;BME280;19763;55.798;37.782;2022-08-19T12:40:47;100376.69;;;26.10;38.35
33422;BME280;19763;55.798;37.782;2022-08-19T12:43:14;100382.69;;;26.37;38.93
33422;BME280;19763;55.798;37.782;2022-08-19T12:45:45;100380.63;;;26.51;38.95
33422;BME280;19763;55.798;37.782;2022-08-19T12:48:10;100377.84;;;26.53;38.89
33422;BME280;19763;55.798;37.782;2022-08-19T12:50:39;100337.84;;;26.32;38.73
33422;BME280;19763;55.798;37.782;2022-08-19T12:53:05;100380.75;;;26.39;38.33
33422;BME280;19763;55.798;37.782;2022-08-19T12:55:31;100388.31;;;26.32;38.71
33422;BME280;19763;55.798;37.782;2022-08-19T12:57:56;100377.53;;;26.11;38.77
33422;BME280;19763;55.798;37.782;2022-08-19T13:00:22;100376.13;;;26.29;38.96